Portada
METAR-TAF:

METAR-TAF

Aeropuertos :

Ghriss, Argelia

latitud: 35-12N, longitud: 000-08E, altitud: 514 m

Observación

El informe se hizo hace 45 minutos, a las 13:00 UTC
Viento 12 kt del este-noreste, variando entre norte y este
Temperatura 12°C
Humedad 47%
Presión 1028 hPa
Visibilidad 10 km o más
Cielo nuboso a una altura de 2000 ft

METAR: DAOV 031300Z 06012KT 010V100 9999 BKN020 12/01 Q1028

Hora: 14:45 (13:45 UTC)

Pronóstico

El informe se hizo hace 2 horas y 45 minutos, a las 11:00 UTC
Pronóstico válido del 03 a las 12 UTC al 03 a las 21 UTC
Viento 11 kt del norte
Visibilidad: 8000 m
Nubes dispersas a una altura de 2300 ft
Probabilidad 40% :
Temporalmente
del 03 a las 14 UTC al 03 a las 20 UTC
Cielo nuboso a una altura de 2000 ft
lluvia

TAF: DAOV 031100Z 0312/0321 01011KT 8000 SCT023 PROB40 TEMPO 0314/0320 RA BKN020

Observaciones y pronósticos meteorológicos de más de 4000 aeropuertos (mensajes METAR y TAF).

Los puntos amarillos y rojos representan las estaciones disponibles.

Ponga el ratón en el punto deseado para ver el nombre de la estación.

Haga clic para ver las observaciones y los pronósticos meteorológicos.

Para cambiar el mapa : haga clic en los botones verdes con una cruz de color negro para hacer un zoom, en el botón verde con un guión para alejar o en las flechas verdes para mapas adyacentes.


METAR-TAF: